Nova Marilandia, Brazil
Current Conditions -  °F | °C
As of 3:00 PM on Saturday 25 Oct 2014 (Local Time) from SBCY Reporting Station
Broken Clouds Broken Clouds  
Wind Chill: 84°   Ceiling: 10000
Heat Index: 90°   Visibility: 6mi
Dew Point: 72°   Wind: 8mph
Humidity: 66%   Direction: 290°WNW
Pressure: 29.83"   Gusts: NA
Location:  14.36°S, 56.97°W
Report Text: SBCY 251800Z 29007KT 9999 SCT020 BKN100 29/22 Q1010
Loading
Personal Weather Stations






























Interactive Weather Map
Tropical Storm Tracking
New forecast layout! Learn more

10-Day Weather Forecast

Advertisements
Track Severe Weather on mobile